Time;durP1;ratioP1;P1;durP2;ratioP2;P2;SDS_P1;SDS_P2;PMS_P1;PMS_P2;Temp;Humidity;BMP_temperature;BMP_pressure;BME280_temperature;BME280_humidity;BME280_pressure;Samples;Min_cycle;Max_cycle;Signal;HPM_P1;HPM_P2
2022/03/11 00:01:27;;;;;;;;;29.25;26.00;;;;;10.88;52.28;100964.44;5069989;28;47178;-71
2022/03/11 00:03:52;;;;;;;;;25.50;22.00;;;;;11.05;51.75;100980.72;5075959;28;45323;-71
2022/03/11 00:06:18;;;;;;;;;28.25;25.50;;;;;10.95;52.30;100964.63;5073682;28;45406;-73
2022/03/11 00:08:43;;;;;;;;;26.50;25.50;;;;;11.12;52.93;100983.56;5078600;28;46066;-73
2022/03/11 00:11:08;;;;;;;;;29.75;28.00;;;;;10.77;53.07;100920.94;5072165;28;48511;-73
2022/03/11 00:13:35;;;;;;;;;28.50;28.25;;;;;10.98;52.78;100942.66;5072747;27;45406;-72
2022/03/11 00:16:01;;;;;;;;;31.50;28.25;;;;;11.14;52.92;100976.53;5079424;28;45506;-73
2022/03/11 00:18:26;;;;;;;;;28.00;24.25;;;;;11.15;53.36;100978.34;5078318;28;46307;-73
2022/03/11 00:20:52;;;;;;;;;25.50;21.50;;;;;11.15;53.59;100969.53;5074613;28;47180;-73
2022/03/11 00:23:17;;;;;;;;;28.00;24.25;;;;;11.05;52.77;100951.63;5074447;27;45366;-73
2022/03/11 00:25:42;;;;;;;;;24.00;19.00;;;;;11.00;53.55;100945.31;5079312;28;45406;-73
2022/03/11 00:28:08;;;;;;;;;27.00;26.00;;;;;11.06;53.11;100946.38;5070777;27;45315;-73
2022/03/11 00:30:33;;;;;;;;;27.50;27.50;;;;;10.84;53.42;100900.00;5076389;28;47188;-73
2022/03/11 00:32:59;;;;;;;;;25.25;25.25;;;;;11.10;53.63;100942.06;5070702;27;44676;-73
2022/03/11 00:35:24;;;;;;;;;30.00;26.25;;;;;11.17;53.00;100950.19;5079202;27;45300;-73
2022/03/11 00:37:49;;;;;;;;;29.25;25.00;;;;;11.20;52.91;100950.25;5069098;28;47232;-73
2022/03/11 00:40:15;;;;;;;;;30.25;25.75;;;;;11.23;52.04;100951.16;5078765;27;46647;-73
2022/03/11 00:42:41;;;;;;;;;28.75;23.50;;;;;11.22;53.42;100954.69;5095364;27;45315;-73
2022/03/11 00:45:07;;;;;;;;;26.25;25.25;;;;;11.19;52.94;100942.28;5077768;28;45337;-73
2022/03/11 00:47:32;;;;;;;;;30.25;26.75;;;;;11.16;52.88;100947.50;5069252;28;46942;-73
2022/03/11 00:49:57;;;;;;;;;33.25;29.25;;;;;10.88;53.61;100904.50;5078735;28;46331;-73
2022/03/11 00:52:23;;;;;;;;;25.00;22.50;;;;;11.07;53.33;100939.34;5070966;28;45265;-72
2022/03/11 00:54:49;;;;;;;;;26.75;22.50;;;;;11.07;51.35;100939.34;5078823;28;45494;-73
2022/03/11 00:57:16;;;;;;;;;28.50;26.50;;;;;10.74;53.18;100882.09;5073945;27;45395;-73
2022/03/11 00:59:41;;;;;;;;;27.00;23.25;;;;;10.83;53.44;100892.91;5074849;28;48016;-73
2022/03/11 01:02:07;;;;;;;;;32.00;28.00;;;;;10.87;53.94;100896.53;5076211;28;45323;-73
2022/03/11 01:04:32;;;;;;;;;27.50;21.75;;;;;10.94;52.52;100904.63;5072657;28;45285;-73
2022/03/11 01:06:57;;;;;;;;;26.00;25.00;;;;;11.02;52.47;100918.06;5077147;28;45498;-73
2022/03/11 01:09:23;;;;;;;;;26.25;22.25;;;;;11.03;53.45;100924.22;5072909;28;46034;-72
2022/03/11 01:11:48;;;;;;;;;22.00;22.00;;;;;10.47;54.29;100835.63;5078491;28;45399;-72
2022/03/11 01:14:14;;;;;;;;;20.50;20.00;;;;;10.81;53.52;100881.41;5070849;28;45209;-73
2022/03/11 01:16:40;;;;;;;;;26.50;22.75;;;;;10.83;52.87;100868.22;5078229;28;45402;-72
2022/03/11 01:19:05;;;;;;;;;24.50;21.25;;;;;10.83;53.57;100861.16;5072819;27;45398;-72
2022/03/11 01:21:30;;;;;;;;;22.25;22.25;;;;;10.95;53.36;100874.72;5078358;28;45332;-72
2022/03/11 01:23:56;;;;;;;;;28.50;23.00;;;;;11.02;52.25;100878.38;5078858;28;45303;-73
2022/03/11 01:26:21;;;;;;;;;22.50;21.75;;;;;11.19;52.08;100900.81;5075308;28;46928;-73
2022/03/11 01:28:47;;;;;;;;;25.00;20.25;;;;;10.96;52.90;100857.09;5073965;28;47078;-73
2022/03/11 01:31:13;;;;;;;;;25.75;21.75;;;;;11.04;53.36;100859.91;5068294;27;45594;-72
2022/03/11 01:33:40;;;;;;;;;23.75;23.75;;;;;11.16;52.63;100881.34;5074885;28;45405;-72
2022/03/11 01:36:06;;;;;;;;;23.00;23.00;;;;;11.23;53.05;100892.94;5078945;28;45377;-72
2022/03/11 01:38:32;;;;;;;;;27.25;21.00;;;;;11.10;51.96;100870.63;5076186;28;45440;-72
2022/03/11 01:40:57;;;;;;;;;21.50;18.00;;;;;10.88;53.55;100835.72;5077080;28;45254;-73
2022/03/11 01:43:22;;;;;;;;;25.50;22.25;;;;;10.80;52.72;100820.53;5074989;28;45242;-72
2022/03/11 01:45:48;;;;;;;;;37.00;26.75;;;;;11.14;52.86;100877.75;5076944;28;45304;-73
2022/03/11 01:48:13;;;;;;;;;22.25;21.75;;;;;11.12;52.32;100874.22;5070636;27;45229;-73
2022/03/11 01:50:41;;;;;;;;;21.75;21.00;;;;;11.09;52.26;100874.13;5065674;28;45322;-72
2022/03/11 01:53:11;;;;;;;;;22.25;22.25;;;;;10.71;52.89;100822.13;5070762;28;45411;-72
2022/03/11 01:55:37;;;;;;;;;23.00;19.25;;;;;10.77;53.29;100825.78;5079091;28;45453;-73
2022/03/11 01:58:04;;;;;;;;;27.50;22.00;;;;;11.00;53.57;100863.31;5080399;28;47327;-73
2022/03/11 02:00:31;;;;;;;;;25.50;20.75;;;;;10.94;54.07;100856.13;5081310;27;45226;-73
2022/03/11 02:02:56;;;;;;;;;22.00;20.25;;;;;10.87;53.34;100849.81;5072602;28;45300;-72
2022/03/11 02:05:22;;;;;;;;;24.25;21.75;;;;;10.62;52.73;100800.75;5081381;27;45159;-72
2022/03/11 02:07:49;;;;;;;;;21.25;20.75;;;;;10.89;52.35;100839.25;5073746;28;46166;-72
2022/03/11 02:10:14;;;;;;;;;21.75;20.25;;;;;10.66;53.79;100804.34;5068242;28;45261;-72
2022/03/11 02:12:39;;;;;;;;;26.00;21.25;;;;;10.68;53.50;100800.91;5075137;27;45460;-72
2022/03/11 02:15:06;;;;;;;;;23.25;20.00;;;;;10.66;53.33;100801.72;5081076;28;45581;-73
2022/03/11 02:17:32;;;;;;;;;20.50;17.75;;;;;10.89;53.96;100829.56;5076843;28;45387;-72
2022/03/11 02:19:57;;;;;;;;;20.25;17.00;;;;;11.00;52.65;100850.09;5081169;28;45482;-73
2022/03/11 02:22:25;;;;;;;;;22.00;22.00;;;;;11.09;53.45;100861.81;5077005;28;45338;-73
2022/03/11 02:24:51;;;;;;;;;27.00;23.75;;;;;10.96;53.82;100838.56;5079629;28;47487;-72
2022/03/11 02:27:17;;;;;;;;;19.00;19.00;;;;;11.17;53.09;100864.59;5071919;28;48256;-72
2022/03/11 02:29:43;;;;;;;;;22.75;20.75;;;;;11.01;53.64;100829.00;5068038;28;45383;-72
2022/03/11 02:32:09;;;;;;;;;24.00;22.00;;;;;11.18;52.94;100851.44;5072126;28;45335;-72
2022/03/11 02:34:36;;;;;;;;;22.75;19.50;;;;;11.08;53.06;100820.31;5081668;27;45394;-72
2022/03/11 02:37:02;;;;;;;;;17.25;15.00;;;;;10.90;52.36;100788.19;5070420;27;46332;-72
2022/03/11 02:39:28;;;;;;;;;22.50;22.25;;;;;10.79;53.41;100763.25;5081374;28;45173;-72
2022/03/11 02:41:53;;;;;;;;;20.25;17.50;;;;;11.19;53.04;100829.38;5075893;28;45340;-73
2022/03/11 02:44:19;;;;;;;;;13.25;12.00;;;;;11.07;53.66;100823.84;5067830;28;45174;-72
2022/03/11 02:46:44;;;;;;;;;22.75;21.75;;;;;11.07;53.31;100807.06;5075932;28;45698;-72
2022/03/11 02:49:09;;;;;;;;;20.75;18.75;;;;;10.98;52.52;100795.44;5062118;27;45212;-72
2022/03/11 02:51:35;;;;;;;;;26.00;22.50;;;;;11.06;53.26;100811.47;5073766;28;45181;-72
2022/03/11 02:54:00;;;;;;;;;24.25;21.00;;;;;11.10;53.65;100808.03;5093655;27;46223;-72
2022/03/11 02:56:26;;;;;;;;;19.75;18.75;;;;;11.03;53.87;100794.63;5077739;28;48119;-72
2022/03/11 02:58:51;;;;;;;;;24.50;21.25;;;;;11.18;52.59;100832.03;5079386;28;45792;-72
2022/03/11 03:01:16;;;;;;;;;23.00;21.50;;;;;11.01;52.66;100799.91;5084556;27;45254;-72
2022/03/11 03:03:42;;;;;;;;;21.75;18.25;;;;;10.83;53.03;100754.50;5071815;27;45496;-73
2022/03/11 03:06:07;;;;;;;;;20.50;17.50;;;;;11.05;54.07;100806.13;5080301;28;45990;-73
2022/03/11 03:08:33;;;;;;;;;29.00;22.00;;;;;10.99;54.19;100798.97;5072129;27;45362;-72
2022/03/11 03:10:58;;;;;;;;;17.00;17.00;;;;;11.05;52.45;100803.50;5080421;28;45414;-72
2022/03/11 03:13:24;;;;;;;;;18.75;17.00;;;;;11.00;53.51;100806.03;5073770;27;45296;-72
2022/03/11 03:15:49;;;;;;;;;25.00;23.50;;;;;10.96;53.19;100801.53;5080170;28;45837;-73
2022/03/11 03:18:15;;;;;;;;;17.75;17.25;;;;;10.56;54.64;100746.84;5074681;27;45337;-73
2022/03/11 03:20:41;;;;;;;;;19.25;19.25;;;;;10.75;54.37;100778.13;5074176;28;45490;-72
2022/03/11 03:23:06;;;;;;;;;21.50;16.50;;;;;10.74;53.97;100777.22;5078395;28;46197;-73
2022/03/11 03:25:32;;;;;;;;;22.50;18.50;;;;;10.54;54.09;100738.88;5080714;27;46544;-73
2022/03/11 03:27:57;;;;;;;;;22.50;20.00;;;;;10.52;54.46;100756.44;5087341;27;45233;-73
2022/03/11 03:30:23;;;;;;;;;25.25;21.00;;;;;10.45;54.92;100746.59;5080275;27;45414;-73
2022/03/11 03:32:48;;;;;;;;;16.25;16.25;;;;;10.55;54.04;100776.78;5076290;28;46288;-72
2022/03/11 03:35:13;;;;;;;;;12.75;11.50;;;;;10.39;55.78;100755.28;5080132;28;46441;-72
2022/03/11 03:37:39;;;;;;;;;19.75;18.75;;;;;10.50;55.30;100780.22;5071292;27;45293;-72
2022/03/11 03:40:06;;;;;;;;;21.25;18.50;;;;;10.17;53.67;100723.88;5080121;27;45294;-72
2022/03/11 03:42:32;;;;;;;;;18.75;17.00;;;;;10.38;55.05;100764.03;5077988;28;46020;-72
2022/03/11 03:44:57;;;;;;;;;24.00;21.75;;;;;10.40;54.85;100770.25;5079822;27;46373;-73
2022/03/11 03:47:23;;;;;;;;;29.25;19.75;;;;;10.16;56.00;100741.44;5072718;28;46118;-73
2022/03/11 03:49:48;;;;;;;;;20.75;19.50;;;;;10.36;55.81;100781.59;5080070;27;45522;-73
2022/03/11 03:52:13;;;;;;;;;24.50;20.50;;;;;10.32;56.17;100774.47;5074892;28;45674;-72
2022/03/11 03:54:39;;;;;;;;;20.75;18.00;;;;;9.86;56.65;100705.50;5071786;28;45553;-73
2022/03/11 03:57:05;;;;;;;;;18.75;17.00;;;;;10.03;56.15;100729.69;5076236;28;45466;-73
2022/03/11 03:59:31;;;;;;;;;24.00;20.00;;;;;10.09;55.60;100743.03;5070687;28;45388;-73
2022/03/11 04:01:56;;;;;;;;;26.25;21.50;;;;;10.10;56.74;100749.22;5078641;28;45250;-73
2022/03/11 04:04:21;;;;;;;;;22.25;18.25;;;;;10.06;55.38;100753.53;5071853;28;45364;-73
2022/03/11 04:06:47;;;;;;;;;21.50;18.00;;;;;10.10;56.85;100757.16;5069451;28;45950;-73
2022/03/11 04:09:12;;;;;;;;;20.75;15.00;;;;;10.06;55.36;100764.09;5078818;28;45442;-73
2022/03/11 04:11:38;;;;;;;;;19.00;16.00;;;;;9.96;57.80;100747.97;5079083;28;45477;-73
2022/03/11 04:14:04;;;;;;;;;20.50;19.00;;;;;9.86;56.83;100739.81;5073377;27;45221;-73
2022/03/11 04:16:29;;;;;;;;;18.50;14.50;;;;;9.88;57.91;100737.22;5079096;28;45442;-73
2022/03/11 04:18:55;;;;;;;;;21.00;16.75;;;;;9.64;56.68;100693.50;5075398;28;45387;-73
2022/03/11 04:21:20;;;;;;;;;17.25;17.00;;;;;9.82;58.47;100734.41;5069985;28;47219;-73
2022/03/11 04:23:48;;;;;;;;;18.00;15.00;;;;;9.91;57.18;100752.25;5079899;27;46306;-73
2022/03/11 04:26:13;;;;;;;;;16.50;16.50;;;;;9.59;58.62;100712.69;5069690;28;45507;-73
2022/03/11 04:28:39;;;;;;;;;20.00;17.50;;;;;9.86;56.50;100753.03;5074505;28;45337;-73
2022/03/11 04:31:07;;;;;;;;;17.75;16.50;;;;;9.78;56.53;100746.66;5077015;27;45418;-72
2022/03/11 04:33:33;;;;;;;;;20.00;16.50;;;;;9.55;57.41;100709.09;5076341;28;45385;-72
2022/03/11 04:35:58;;;;;;;;;19.75;18.75;;;;;9.36;59.28;100681.31;5080915;28;45715;-72
2022/03/11 04:38:24;;;;;;;;;22.50;18.50;;;;;9.75;57.23;100749.22;5070450;28;45364;-72
2022/03/11 04:40:49;;;;;;;;;17.50;16.25;;;;;9.65;58.42;100741.88;5076132;28;46162;-73
2022/03/11 04:43:14;;;;;;;;;19.75;14.00;;;;;9.38;59.49;100692.81;5077887;28;48106;-73
2022/03/11 04:45:40;;;;;;;;;18.00;16.75;;;;;9.71;58.56;100752.59;5075945;28;45490;-72
2022/03/11 04:48:06;;;;;;;;;13.50;11.50;;;;;9.57;57.89;100727.59;5069514;27;45300;-73
2022/03/11 04:50:31;;;;;;;;;18.75;17.50;;;;;9.52;57.73;100718.66;5062508;28;45501;-73
2022/03/11 04:52:57;;;;;;;;;19.75;16.00;;;;;9.45;58.72;100700.88;5070333;28;45485;-73
2022/03/11 04:55:22;;;;;;;;;15.75;15.75;;;;;9.58;59.10;100725.00;5074094;28;45174;-72
2022/03/11 04:57:48;;;;;;;;;18.50;15.75;;;;;9.69;58.84;100737.56;5071666;27;45414;-73
2022/03/11 05:00:14;;;;;;;;;19.00;14.50;;;;;9.56;59.27;100720.53;5076622;28;45506;-73
2022/03/11 05:02:44;;;;;;;;;15.75;13.00;;;;;9.59;59.97;100731.16;5077726;28;47481;-73
2022/03/11 05:05:11;;;;;;;;;16.00;13.25;;;;;9.65;59.42;100741.88;5078664;27;45225;-73
2022/03/11 05:07:37;;;;;;;;;15.75;14.50;;;;;9.59;58.71;100726.78;5072548;27;45223;-73
2022/03/11 05:10:04;;;;;;;;;16.00;13.00;;;;;9.57;59.27;100733.75;5077354;28;45320;-72
2022/03/11 05:12:30;;;;;;;;;16.00;14.25;;;;;9.65;58.57;100739.25;5074103;27;45457;-73
2022/03/11 05:14:55;;;;;;;;;12.00;11.00;;;;;9.31;58.86;100676.75;5077480;28;45335;-73
2022/03/11 05:17:21;;;;;;;;;16.25;15.50;;;;;9.41;60.91;100697.28;5074977;27;45352;-72
2022/03/11 05:19:46;;;;;;;;;14.25;11.50;;;;;9.57;58.71;100725.84;5077933;28;45417;-73
2022/03/11 05:22:12;;;;;;;;;15.00;12.25;;;;;9.59;59.05;100726.78;5069203;28;46647;-72
2022/03/11 05:24:38;;;;;;;;;16.25;14.25;;;;;9.52;60.07;100708.09;5077521;28;45741;-73
2022/03/11 05:27:05;;;;;;;;;16.75;12.50;;;;;9.53;61.28;100720.44;5069340;28;45449;-73
2022/03/11 05:29:32;;;;;;;;;16.25;11.25;;;;;9.23;60.22;100667.75;5077618;28;45560;-72
2022/03/11 05:31:58;;;;;;;;;15.25;11.50;;;;;9.46;59.45;100705.28;5074019;28;47318;-73
2022/03/11 05:34:23;;;;;;;;;16.75;13.75;;;;;9.49;60.55;100713.28;5078679;28;45384;-73
2022/03/11 05:36:49;;;;;;;;;15.25;13.00;;;;;9.37;61.26;100698.03;5067348;28;45342;-73
2022/03/11 05:39:14;;;;;;;;;13.00;13.00;;;;;9.36;61.00;100690.97;5076552;28;46176;-73
2022/03/11 05:41:39;;;;;;;;;13.75;11.25;;;;;9.36;59.86;100680.41;5074391;27;45401;-73
2022/03/11 05:44:05;;;;;;;;;14.00;11.50;;;;;9.40;60.83;100701.63;5066163;27;45349;-72
2022/03/11 05:46:31;;;;;;;;;11.25;11.25;;;;;9.22;60.62;100676.50;5075913;28;45501;-73
2022/03/11 05:48:56;;;;;;;;;17.50;12.00;;;;;9.36;59.90;100697.13;5061870;28;45442;-73
2022/03/11 05:51:21;;;;;;;;;10.25;9.25;;;;;9.36;59.44;100697.13;5068515;28;45906;-73
2022/03/11 05:53:47;;;;;;;;;14.75;12.00;;;;;8.55;60.10;100560.41;5077345;28;45324;-75
2022/03/11 05:56:12;;;;;;;;;15.00;15.00;;;;;9.05;60.12;100654.94;5076933;27;45521;-73
2022/03/11 05:58:37;;;;;;;;;17.00;14.00;;;;;9.25;61.18;100687.16;5068458;28;45365;-72
2022/03/11 06:01:03;;;;;;;;;13.00;12.00;;;;;9.24;61.80;100687.97;5077997;28;45688;-72
2022/03/11 06:03:29;;;;;;;;;13.00;12.75;;;;;9.07;62.31;100663.78;5070277;28;45465;-73
2022/03/11 06:05:55;;;;;;;;;16.00;11.00;;;;;9.26;61.26;100704.75;5068631;28;45416;-73
2022/03/11 06:08:20;;;;;;;;;15.00;15.00;;;;;9.09;61.49;100680.53;5070584;27;45417;-72
2022/03/11 06:10:47;;;;;;;;;16.25;12.00;;;;;8.91;60.79;100642.25;5075562;28;47535;-74
2022/03/11 06:13:14;;;;;;;;;12.75;11.50;;;;;9.28;61.43;100708.31;5079360;28;45267;-74
2022/03/11 06:15:40;;;;;;;;;15.00;15.00;;;;;9.15;59.65;100678.97;5075983;28;45495;-73
2022/03/11 06:18:05;;;;;;;;;11.00;10.00;;;;;8.88;62.24;100647.44;5078143;28;45407;-74
2022/03/11 06:20:32;;;;;;;;;10.50;10.25;;;;;9.22;61.31;100697.63;5079406;27;45339;-73
2022/03/11 06:22:58;;;;;;;;;13.50;12.50;;;;;9.15;60.85;100681.59;5072645;28;45338;-73
2022/03/11 06:25:23;;;;;;;;;21.75;16.75;;;;;9.23;61.87;100699.38;5077557;28;45489;-74
2022/03/11 06:27:49;;;;;;;;;25.00;19.50;;;;;9.23;61.75;100695.00;5071536;28;45249;-72
2022/03/11 06:30:14;;;;;;;;;70.25;52.00;;;;;9.24;61.95;100691.50;5078860;28;48334;-72
2022/03/11 06:32:45;;;;;;;;;12.50;11.25;;;;;9.22;61.67;100689.69;5078167;28;45470;-71
2022/03/11 06:35:13;;;;;;;;;9.25;9.25;;;;;9.07;62.01;100663.78;5079570;28;45408;-72
2022/03/11 06:37:38;;;;;;;;;23.00;22.50;;;;;9.29;61.86;100681.97;5072770;27;47383;-72
2022/03/11 06:40:05;;;;;;;;;37.75;31.25;;;;;9.33;62.36;100680.34;5080839;27;46453;-74
2022/03/11 06:42:39;;;;;;;;;59.75;50.50;;;;;9.23;61.17;100654.56;5070204;28;45234;-74
2022/03/11 06:45:06;;;;;;;;;8.00;8.00;;;;;9.21;63.19;100670.31;5072272;28;45281;-75
2022/03/11 06:47:31;;;;;;;;;17.50;11.50;;;;;9.24;63.18;100680.94;5071625;28;45295;-75
2022/03/11 06:49:57;;;;;;;;;17.00;12.25;;;;;8.92;61.85;100603.63;5061753;28;45243;-75
2022/03/11 06:52:22;;;;;;;;;26.25;23.50;;;;;9.30;61.72;100659.13;5079370;28;45314;-73
2022/03/11 06:54:48;;;;;;;;;8.50;5.00;;;;;9.45;62.09;100685.94;5076932;28;45546;-75
2022/03/11 06:57:15;;;;;;;;;15.75;14.50;;;;;9.51;60.89;100680.81;5093535;27;45859;-74
2022/03/11 06:59:42;;;;;;;;;11.50;11.25;;;;;9.36;60.92;100654.03;5074597;28;46069;-75
2022/03/11 07:02:08;;;;;;;;;10.25;8.25;;;;;9.18;61.78;100617.50;5071283;28;46206;-74
2022/03/11 07:04:34;;;;;;;;;11.25;11.00;;;;;9.53;61.21;100665.03;5074936;28;45488;-75
2022/03/11 07:06:59;;;;;;;;;116.33;100.67;;;;;9.58;60.60;100658.16;5072557;28;47167;-76
2022/03/11 07:09:26;;;;;;;;;25.00;19.50;;;;;9.28;60.60;100606.34;5069664;28;46202;-76
2022/03/11 07:11:57;;;;;;;;;9.00;8.00;;;;;9.46;60.48;100621.75;5077417;28;45457;-74
2022/03/11 07:14:22;;;;;;;;;10.00;10.00;;;;;9.52;60.63;100627.22;5078481;28;45335;-76
2022/03/11 07:16:51;;;;;;;;;16.25;16.25;;;;;9.25;60.83;100579.00;5071566;27;45675;-75
2022/03/11 07:19:16;;;;;;;;;17.50;15.25;;;;;9.78;61.39;100667.47;5076701;28;46252;-75
2022/03/11 07:21:41;;;;;;;;;15.25;13.25;;;;;9.82;60.44;100666.66;5075233;28;45452;-76
2022/03/11 07:24:07;;;;;;;;;11.50;10.50;;;;;9.85;60.92;100673.78;5079186;28;45232;-75
2022/03/11 07:26:32;;;;;;;;;11.25;10.25;;;;;9.77;60.28;100641.91;5079385;28;45460;-75
2022/03/11 07:28:58;;;;;;;;;82.25;65.25;;;;;9.64;60.25;100609.03;5080124;28;45481;-75
2022/03/11 07:31:23;;;;;;;;;9.25;8.75;;;;;9.90;59.87;100655.41;5079063;27;45422;-74
2022/03/11 07:33:49;;;;;;;;;11.75;10.50;;;;;10.00;60.28;100660.97;5080290;27;45280;-74
2022/03/11 07:36:14;;;;;;;;;10.75;10.75;;;;;9.69;60.93;100603.88;5079335;27;45543;-75
2022/03/11 07:38:39;;;;;;;;;19.00;13.25;;;;;9.75;60.21;100611.06;5079682;28;46443;-75
2022/03/11 07:41:07;;;;;;;;;18.00;15.25;;;;;9.83;59.73;100604.19;5075266;27;45643;-75
2022/03/11 07:43:32;;;;;;;;;20.75;14.75;;;;;9.61;60.14;100557.94;5066501;28;45353;-74
2022/03/11 07:45:57;;;;;;;;;9.75;9.75;;;;;9.86;59.26;100591.97;5076940;28;45443;-74
2022/03/11 07:48:23;;;;;;;;;11.75;10.00;;;;;9.86;59.31;100569.97;5071536;27;45343;-74
2022/03/11 07:50:48;;;;;;;;;12.50;11.25;;;;;9.75;60.08;100532.78;5063866;28;45251;-74
2022/03/11 07:53:13;;;;;;;;;13.25;10.25;;;;;10.26;58.39;100606.09;5069038;28;45424;-74
2022/03/11 07:55:39;;;;;;;;;10.00;9.50;;;;;10.46;59.16;100642.69;5078889;27;46742;-74
2022/03/11 07:58:05;;;;;;;;;6.00;6.00;;;;;10.48;59.31;100633.03;5070749;27;45383;-74
2022/03/11 08:00:30;;;;;;;;;11.75;8.50;;;;;10.60;58.98;100641.22;5080297;28;45177;-73
2022/03/11 08:02:56;;;;;;;;;12.50;11.00;;;;;10.57;58.90;100637.63;5072159;27;45283;-71
2022/03/11 08:05:21;;;;;;;;;9.00;9.00;;;;;10.26;58.68;100584.09;5079276;28;45126;-74
2022/03/11 08:07:48;;;;;;;;;8.75;8.75;;;;;10.44;58.39;100600.34;5075475;28;46163;-74
2022/03/11 08:10:15;;;;;;;;;5.00;5.00;;;;;10.73;57.92;100623.88;5078227;28;45499;-74
2022/03/11 08:12:41;;;;;;;;;13.50;12.25;;;;;10.80;57.70;100606.38;5078694;28;45488;-73
2022/03/11 08:15:07;;;;;;;;;10.50;9.75;;;;;10.66;57.50;100567.34;5078014;28;46109;-72
2022/03/11 08:17:32;;;;;;;;;6.00;4.25;;;;;10.89;57.46;100610.09;5074633;28;46551;-73
2022/03/11 08:19:58;;;;;;;;;31.00;29.75;;;;;11.09;57.53;100623.72;5079021;28;45346;-73
2022/03/11 08:22:23;;;;;;;;;11.00;10.00;;;;;11.17;56.72;100603.59;5070605;28;45454;-73
2022/03/11 08:24:49;;;;;;;;;15.00;14.50;;;;;11.35;57.42;100620.69;5079851;27;45290;-73
2022/03/11 08:27:15;;;;;;;;;12.00;11.00;;;;;11.15;56.83;100565.63;5067944;27;45159;-73
2022/03/11 08:29:40;;;;;;;;;13.00;13.00;;;;;11.52;55.88;100602.44;5077033;28;45378;-73
2022/03/11 08:32:06;;;;;;;;;11.75;10.00;;;;;11.65;56.13;100613.28;5077640;28;45372;-73
2022/03/11 08:34:31;;;;;;;;;11.25;10.00;;;;;11.89;55.94;100609.25;5079718;27;45517;-73
2022/03/11 08:36:57;;;;;;;;;8.00;7.25;;;;;11.90;55.51;100581.91;5075995;28;46956;-72
2022/03/11 08:39:22;;;;;;;;;7.25;7.00;;;;;11.78;55.61;100555.22;5079631;28;45240;-72
2022/03/11 08:41:48;;;;;;;;;8.25;7.00;;;;;11.80;55.16;100569.38;5074223;27;45244;-73
2022/03/11 08:44:13;;;;;;;;;14.25;12.25;;;;;11.91;54.92;100581.06;5066123;27;46430;-72
2022/03/11 08:46:38;;;;;;;;;7.00;6.00;;;;;11.94;54.66;100577.56;5074354;27;45745;-72
2022/03/11 08:49:06;;;;;;;;;7.00;6.00;;;;;12.01;55.48;100588.25;5062011;27;45358;-72
2022/03/11 08:51:33;;;;;;;;;7.75;7.00;;;;;12.05;54.93;100579.50;5066396;28;45376;-71
2022/03/11 08:53:58;;;;;;;;;6.00;6.00;;;;;12.18;54.21;100582.31;5068810;27;45335;-72
2022/03/11 08:56:23;;;;;;;;;8.25;7.25;;;;;12.12;54.40;100546.03;5078618;28;45391;-72
2022/03/11 08:58:50;;;;;;;;;9.50;7.25;;;;;12.52;53.56;100579.28;5077874;28;46425;-72
2022/03/11 09:01:16;;;;;;;;;8.50;7.00;;;;;12.55;53.38;100551.91;5071771;28;45259;-72
2022/03/11 09:03:42;;;;;;;;;8.00;7.25;;;;;12.77;52.42;100576.91;5070962;27;45348;-72
2022/03/11 09:06:07;;;;;;;;;7.00;6.25;;;;;12.90;53.03;100572.63;5069028;28;47214;-72
2022/03/11 09:08:32;;;;;;;;;10.50;6.25;;;;;12.77;52.25;100532.72;5071804;27;45321;-72
2022/03/11 09:10:58;;;;;;;;;8.75;6.00;;;;;12.98;52.45;100533.81;5078839;28;45252;-72
2022/03/11 09:13:23;;;;;;;;;8.75;7.50;;;;;13.23;52.06;100545.56;5073053;27;45381;-72
2022/03/11 09:15:48;;;;;;;;;8.25;5.00;;;;;13.04;52.51;100503.78;5078571;28;45347;-72
2022/03/11 09:18:14;;;;;;;;;6.50;5.25;;;;;13.35;51.30;100540.38;5077052;28;46191;-72
2022/03/11 09:20:40;;;;;;;;;8.75;7.50;;;;;13.55;50.80;100564.44;5078733;28;44788;-72
2022/03/11 09:23:06;;;;;;;;;6.50;6.25;;;;;13.63;50.95;100536.19;5084613;27;46315;-72
2022/03/11 09:25:32;;;;;;;;;6.25;6.25;;;;;13.77;50.57;100564.63;5072648;28;45534;-72
2022/03/11 09:27:57;;;;;;;;;5.33;5.00;;;;;13.79;50.08;100550.47;5078785;28;45260;-72
2022/03/11 09:30:22;;;;;;;;;9.00;8.33;;;;;13.64;49.85;100534.44;5078673;27;45362;-72
2022/03/11 09:32:48;;;;;;;;;6.75;6.75;;;;;13.71;50.21;100530.06;5069724;27;45452;-72
2022/03/11 09:35:13;;;;;;;;;5.67;4.33;;;;;13.84;50.08;100545.22;5078356;27;46158;-72
2022/03/11 09:37:39;;;;;;;;;4.67;3.33;;;;;14.02;49.67;100553.28;5068199;28;45567;-73
2022/03/11 09:40:06;;;;;;;;;10.75;7.25;;;;;14.15;49.80;100550.72;5077237;28;45315;-73
2022/03/11 09:42:31;;;;;;;;;5.33;3.33;;;;;13.99;49.35;100534.66;5069606;28;45241;-73
2022/03/11 09:44:57;;;;;;;;;3.00;3.00;;;;;14.02;50.09;100531.13;5069798;28;45831;-73
2022/03/11 09:47:23;;;;;;;;;2.67;2.67;;;;;14.18;49.84;100534.78;5069864;27;45447;-72
2022/03/11 09:49:50;;;;;;;;;4.00;3.00;;;;;14.12;49.35;100516.16;5058855;28;45377;-72
2022/03/11 09:52:17;;;;;;;;;4.67;3.33;;;;;14.22;49.70;100526.81;5073561;28;46950;-73
2022/03/11 09:54:45;;;;;;;;;4.00;3.00;;;;;14.19;49.58;100525.91;5073254;28;46251;-72
2022/03/11 09:57:11;;;;;;;;;3.00;3.00;;;;;14.19;48.98;100526.78;5071979;28;45614;-72
2022/03/11 09:59:37;;;;;;;;;4.33;3.00;;;;;14.23;49.21;100519.75;5074910;28;45243;-72
2022/03/11 10:02:11;;;;;;;;;6.00;3.00;;;;;14.31;49.10;100528.63;5079854;28;46335;-72
2022/03/11 10:04:36;;;;;;;;;3.00;3.00;;;;;13.99;49.54;100470.88;5074481;28;47084;-72
2022/03/11 10:07:02;;;;;;;;;4.33;4.00;;;;;14.05;49.05;100476.22;5071288;28;46189;-72
2022/03/11 10:09:30;;;;;;;;;9.33;8.00;;;;;14.07;49.75;100503.69;5082058;28;45445;-72
2022/03/11 10:11:57;;;;;;;;;1.67;0.00;;;;;13.98;50.36;100497.47;5081196;27;45559;-72
2022/03/11 10:14:34;;;;;;;;;4.33;4.33;;;;;13.72;51.79;100484.00;5078078;28;47226;-73
2022/03/11 10:17:00;;;;;;;;;5.00;3.67;;;;;13.27;52.35;100449.16;5080709;28;45294;-72
2022/03/11 10:19:26;;;;;;;;;4.00;3.00;;;;;13.22;52.32;100466.81;5079560;28;45344;-72
2022/03/11 10:21:55;;;;;;;;;4.67;2.33;;;;;13.42;53.07;100522.75;5075289;28;46002;-72
2022/03/11 10:24:21;;;;;;;;;4.33;3.00;;;;;13.17;52.14;100471.19;5081750;27;46228;-72
2022/03/11 10:26:52;;;;;;;;;3.00;3.00;;;;;13.20;53.15;100476.53;5073992;28;45268;-73
2022/03/11 10:29:19;;;;;;;;;5.67;5.00;;;;;13.28;53.10;100479.28;5080909;28;45403;-73
2022/03/11 10:31:47;;;;;;;;;5.00;4.00;;;;;13.55;53.04;100503.38;5073948;27;45461;-72
2022/03/11 10:34:27;;;;;;;;;3.33;3.00;;;;;13.57;52.20;100482.16;5079724;28;46525;-72
2022/03/11 10:36:52;;;;;;;;;4.00;3.00;;;;;13.65;52.46;100496.38;5072814;27;45398;-73
2022/03/11 10:39:25;;;;;;;;;3.67;3.00;;;;;13.67;52.44;100507.91;5080319;28;45292;-72
2022/03/11 10:41:53;;;;;;;;;3.00;3.00;;;;;13.69;52.09;100518.53;5070412;28;46189;-72
2022/03/11 10:44:25;;;;;;;;;4.67;3.33;;;;;13.61;52.13;100518.47;5079728;28;47212;-72
2022/03/11 10:46:51;;;;;;;;;4.67;3.00;;;;;13.62;52.34;100520.25;5070970;28;45202;-72
2022/03/11 10:49:31;;;;;;;;;3.00;3.00;;;;;13.55;52.65;100523.72;5068732;28;45510;-73
2022/03/11 10:51:58;;;;;;;;;3.00;3.00;;;;;13.53;52.78;100521.06;5078700;28;45305;-72
2022/03/11 10:54:26;;;;;;;;;3.00;3.00;;;;;13.51;53.13;100514.84;5070843;27;45236;-73
2022/03/11 10:56:51;;;;;;;;;4.00;3.00;;;;;13.45;53.75;100520.13;5080027;28;45389;-74
2022/03/11 10:59:23;;;;;;;;;4.00;4.00;;;;;13.40;53.57;100538.66;5072800;27;45385;-74
2022/03/11 11:01:51;;;;;;;;;3.67;2.67;;;;;13.27;56.48;100528.81;5079710;28;45337;-74
2022/03/11 11:04:18;;;;;;;;;5.00;5.00;;;;;13.28;57.41;100529.72;5073017;28;46117;-74
2022/03/11 11:06:44;;;;;;;;;7.00;6.00;;;;;13.26;56.65;100528.81;5072382;28;45629;-74
2022/03/11 11:09:11;;;;;;;;;6.00;6.00;;;;;13.23;55.72;100531.41;5072728;28;45268;-73
2022/03/11 11:11:37;;;;;;;;;6.00;6.00;;;;;13.10;57.39;100530.38;5080097;27;45523;-73